createdAt,value
2018-11-27T00:01:45.179Z,101729.48
2018-11-27T00:04:18.908Z,101729.77
2018-11-27T00:06:51.448Z,101732.68
2018-11-27T00:09:23.235Z,101735.55
2018-11-27T00:11:55.045Z,101738.52
2018-11-27T00:14:27.519Z,101739.23
2018-11-27T00:17:00.339Z,101743.00
2018-11-27T00:19:34.710Z,101743.81
2018-11-27T00:22:14.621Z,101743.07
2018-11-27T00:24:47.050Z,101739.45
2018-11-27T00:27:18.935Z,101737.14
2018-11-27T00:29:52.260Z,101742.10
2018-11-27T00:32:24.685Z,101743.41
2018-11-27T00:34:56.587Z,101750.29
2018-11-27T00:37:32.922Z,101753.20
2018-11-27T00:40:04.641Z,101752.73
2018-11-27T00:42:36.669Z,101759.89
2018-11-27T00:45:15.992Z,101751.14
2018-11-27T00:47:50.236Z,101751.05
2018-11-27T00:50:25.681Z,101753.23
2018-11-27T00:52:59.076Z,101755.45
2018-11-27T00:55:37.512Z,101763.16
2018-11-27T01:01:49.097Z,101766.50
2018-11-27T01:04:58.385Z,101773.33
2018-11-27T01:07:49.461Z,101778.42
2018-11-27T01:10:59.953Z,101775.16
2018-11-27T01:18:18.909Z,101777.45
2018-11-27T01:21:50.786Z,101776.88
2018-11-27T01:34:37.923Z,101782.33
2018-11-27T01:37:10.684Z,101783.97
2018-11-27T01:39:42.345Z,101785.50
2018-11-27T01:42:15.212Z,101789.25
2018-11-27T01:44:47.142Z,101788.14
2018-11-27T01:47:25.663Z,101791.28
2018-11-27T01:49:58.352Z,101788.89
2018-11-27T01:52:30.298Z,101788.61
2018-11-27T01:55:03.079Z,101792.53
2018-11-27T01:57:46.614Z,101796.50
2018-11-27T02:00:34.587Z,101795.70
2018-11-27T02:03:06.995Z,101795.70
2018-11-27T02:05:39.363Z,101794.17
2018-11-27T02:08:11.169Z,101796.48
2018-11-27T02:10:43.369Z,101795.24
2018-11-27T02:13:16.210Z,101785.78
2018-11-27T02:16:01.353Z,101782.92
2018-11-27T02:18:40.900Z,101786.80
2018-11-27T02:21:28.883Z,101784.09
2018-11-27T02:24:00.986Z,101786.46
2018-11-27T02:26:34.452Z,101748.16
2018-11-27T02:29:25.273Z,101782.70
2018-11-27T02:31:57.953Z,101783.59
2018-11-27T02:34:32.536Z,101787.58
2018-11-27T02:37:08.644Z,101794.16
2018-11-27T02:40:01.437Z,101793.01
2018-11-27T02:42:38.662Z,101793.89
2018-11-27T02:45:14.148Z,101793.34
2018-11-27T02:48:15.907Z,101787.92
2018-11-27T02:51:18.912Z,101789.98
2018-11-27T02:53:56.433Z,101798.40
2018-11-27T02:56:28.632Z,101802.72
2018-11-27T02:59:00.351Z,101803.57
2018-11-27T03:01:38.113Z,101801.20
2018-11-27T03:04:59.747Z,101803.41
2018-11-27T03:12:44.946Z,101803.84
2018-11-27T03:23:45.375Z,101808.60
2018-11-27T03:27:16.291Z,101812.28
2018-11-27T03:37:52.928Z,101826.13
2018-11-27T03:41:24.403Z,101830.51
2018-11-27T03:44:23.104Z,101824.73
2018-11-27T03:47:37.984Z,101832.88
2018-11-27T03:53:48.280Z,101835.62
2018-11-27T03:56:20.212Z,101837.23
2018-11-27T03:58:52.329Z,101837.95
2018-11-27T04:02:47.902Z,101842.51
2018-11-27T04:08:45.814Z,101841.31
2018-11-27T04:11:19.696Z,101839.99
2018-11-27T04:13:58.763Z,101851.77
2018-11-27T04:16:30.879Z,101848.38
2018-11-27T04:19:03.420Z,101863.17
2018-11-27T04:21:35.261Z,101856.84
2018-11-27T04:24:07.402Z,101855.67
2018-11-27T04:26:40.803Z,101859.79
2018-11-27T04:29:13.290Z,101862.28
2018-11-27T04:31:46.823Z,101867.73
2018-11-27T04:34:19.079Z,101871.55
2018-11-27T04:36:50.359Z,101866.80
2018-11-27T04:39:22.488Z,101870.60
2018-11-27T04:41:58.205Z,101873.92
2018-11-27T04:44:30.612Z,101869.31
2018-11-27T04:47:02.313Z,101869.39
2018-11-27T04:49:34.734Z,101861.84
2018-11-27T04:52:06.509Z,101868.88
2018-11-27T04:54:38.204Z,101868.33
2018-11-27T04:57:10.351Z,101872.84
2018-11-27T04:59:41.837Z,101873.35
2018-11-27T05:02:14.244Z,101872.39
2018-11-27T05:04:49.717Z,101877.14
2018-11-27T05:07:42.372Z,101874.58
2018-11-27T05:10:28.953Z,101836.19
2018-11-27T05:13:18.679Z,101880.80
2018-11-27T05:15:53.737Z,101878.15
2018-11-27T05:18:25.861Z,101875.72
2018-11-27T05:20:57.258Z,101884.52
2018-11-27T05:23:30.254Z,101891.95
2018-11-27T05:26:02.105Z,101890.77
2018-11-27T05:28:33.610Z,101893.91
2018-11-27T05:31:06.108Z,101893.63
2018-11-27T05:33:37.933Z,101859.06
2018-11-27T05:36:10.277Z,101897.80
2018-11-27T05:38:43.397Z,101898.30
2018-11-27T05:41:14.784Z,101902.70
2018-11-27T05:43:46.283Z,101901.23
2018-11-27T05:46:17.804Z,101910.89
2018-11-27T05:48:50.298Z,101919.11
2018-11-27T05:51:21.913Z,101916.28
2018-11-27T05:53:54.045Z,101918.58
2018-11-27T05:56:25.530Z,101920.16
2018-11-27T05:58:56.996Z,101921.83
2018-11-27T06:01:29.716Z,101928.80
2018-11-27T06:04:01.177Z,101929.20
2018-11-27T06:06:33.445Z,101941.96
2018-11-27T06:09:08.111Z,101940.81
2018-11-27T06:11:40.088Z,101939.92
2018-11-27T06:14:11.903Z,101945.21
2018-11-27T06:16:44.037Z,101943.97
2018-11-27T06:19:16.508Z,101948.36
2018-11-27T06:21:48.881Z,101949.15
2018-11-27T06:24:20.317Z,101951.58
2018-11-27T06:26:51.754Z,101952.80
2018-11-27T06:29:25.195Z,101954.55
2018-11-27T06:31:56.609Z,101963.52
2018-11-27T06:34:28.051Z,101959.77
2018-11-27T06:36:59.629Z,101968.67
2018-11-27T06:39:31.978Z,101966.58
2018-11-27T06:42:05.155Z,101970.48
2018-11-27T06:44:37.458Z,101979.09
2018-11-27T06:47:09.118Z,101976.59
2018-11-27T06:49:40.429Z,101981.27
2018-11-27T06:52:12.385Z,101985.24
2018-11-27T06:54:44.468Z,101991.42
2018-11-27T06:57:16.968Z,102001.33
2018-11-27T06:59:48.299Z,102004.50
2018-11-27T07:02:19.729Z,102004.67
2018-11-27T07:04:51.168Z,102001.78
2018-11-27T07:07:24.352Z,102009.80
2018-11-27T07:09:56.430Z,102017.38
2018-11-27T07:12:27.878Z,102025.53
2018-11-27T07:14:59.200Z,102026.35
2018-11-27T07:17:30.577Z,102034.06
2018-11-27T07:20:03.666Z,102037.81
2018-11-27T07:22:35.587Z,102040.30
2018-11-27T07:25:34.204Z,102038.61
2018-11-27T07:28:06.233Z,102046.83
2018-11-27T07:30:39.834Z,102040.82
2018-11-27T07:33:11.967Z,102041.78
2018-11-27T07:35:44.104Z,102044.78
2018-11-27T07:38:16.495Z,102048.98
2018-11-27T07:40:48.624Z,102057.19
2018-11-27T07:43:20.516Z,102057.70
2018-11-27T07:45:55.163Z,102062.34
2018-11-27T07:48:26.542Z,102059.42
2018-11-27T07:50:57.832Z,102070.36
2018-11-27T07:53:29.628Z,102072.06
2018-11-27T07:56:02.599Z,102070.75
2018-11-27T07:58:35.776Z,102072.56
2018-11-27T08:01:07.651Z,102073.89
2018-11-27T08:03:40.271Z,102077.47
2018-11-27T08:06:13.184Z,102081.22
2018-11-27T08:08:45.528Z,102078.30
2018-11-27T08:11:19.387Z,102081.83
2018-11-27T08:13:52.622Z,102085.44
2018-11-27T08:16:24.674Z,102086.23
2018-11-27T08:18:56.739Z,102090.06
2018-11-27T08:21:29.585Z,102096.38
2018-11-27T08:24:09.294Z,102094.62
2018-11-27T08:26:42.795Z,102095.22
2018-11-27T08:29:14.673Z,102096.32
2018-11-27T08:31:48.035Z,102103.82
2018-11-27T08:34:19.961Z,102097.64
2018-11-27T08:36:52.300Z,102099.25
2018-11-27T08:39:24.100Z,102111.52
2018-11-27T08:41:55.890Z,102115.88
2018-11-27T08:44:27.700Z,102116.89
2018-11-27T08:46:59.471Z,102119.67
2018-11-27T08:49:30.710Z,102128.41
2018-11-27T08:52:02.660Z,102134.67
2018-11-27T08:54:34.100Z,102143.30
2018-11-27T08:57:05.584Z,102151.15
2018-11-27T08:59:39.721Z,102156.88
2018-11-27T09:02:11.868Z,102154.98
2018-11-27T09:04:43.677Z,102157.77
2018-11-27T09:07:17.103Z,102159.17
2018-11-27T09:09:48.547Z,102150.77
2018-11-27T09:12:21.306Z,102140.12
2018-11-27T09:14:53.351Z,102151.42
2018-11-27T09:17:25.145Z,102164.80
2018-11-27T09:19:57.547Z,102159.30
2018-11-27T09:22:32.453Z,102167.47
2018-11-27T09:25:02.379Z,102171.61
2018-11-27T09:27:33.936Z,102177.71
2018-11-27T09:30:07.620Z,102181.22
2018-11-27T09:32:39.070Z,102185.95
2018-11-27T09:35:11.801Z,102182.77
2018-11-27T09:37:43.985Z,102181.97
2018-11-27T09:40:19.873Z,102173.94
2018-11-27T09:42:51.805Z,102173.14
2018-11-27T09:45:25.779Z,102161.89
2018-11-27T09:48:00.553Z,102164.18
2018-11-27T09:50:32.706Z,102157.58
2018-11-27T09:53:04.688Z,102163.42
2018-11-27T09:55:36.205Z,102159.56
2018-11-27T09:58:08.092Z,102167.64
2018-11-27T10:00:39.516Z,102169.55
2018-11-27T10:03:13.410Z,102177.00
2018-11-27T10:05:45.179Z,102172.41
2018-11-27T10:08:17.133Z,102165.13
2018-11-27T10:10:48.842Z,102170.89
2018-11-27T10:13:20.202Z,102163.81
2018-11-27T10:15:51.829Z,102158.63
2018-11-27T10:18:23.759Z,102160.48
2018-11-27T10:20:55.152Z,102154.15
2018-11-27T10:23:27.266Z,102157.23
2018-11-27T10:25:59.529Z,102152.97
2018-11-27T10:28:32.268Z,102150.47
2018-11-27T10:31:03.752Z,102151.11
2018-11-27T10:33:35.432Z,102150.42
2018-11-27T10:36:06.739Z,102157.05
2018-11-27T10:38:38.682Z,102149.73
2018-11-27T10:41:12.273Z,102154.23
2018-11-27T10:43:43.721Z,102150.80
2018-11-27T10:46:16.312Z,102152.05
2018-11-27T10:48:48.056Z,102153.85
2018-11-27T10:51:19.562Z,102153.00
2018-11-27T10:53:52.354Z,102155.82
2018-11-27T10:56:24.172Z,102155.56
2018-11-27T10:58:56.121Z,102150.20
2018-11-27T11:01:44.733Z,102154.23
2018-11-27T11:04:18.062Z,102149.48
2018-11-27T11:06:50.266Z,102147.19
2018-11-27T11:09:23.270Z,102151.42
2018-11-27T11:11:59.252Z,102161.22
2018-11-27T11:14:27.699Z,102152.27
2018-11-27T11:16:59.571Z,102147.47
2018-11-27T11:19:31.002Z,102152.48
2018-11-27T11:22:02.897Z,102147.03
2018-11-27T11:24:34.882Z,102151.41
2018-11-27T11:27:06.449Z,102150.67
2018-11-27T11:29:38.359Z,102149.38
2018-11-27T11:32:10.348Z,102152.65
2018-11-27T11:34:41.888Z,102151.41
2018-11-27T11:37:14.441Z,102150.12
2018-11-27T11:39:46.867Z,102153.44
2018-11-27T11:42:18.537Z,102153.09
2018-11-27T11:44:50.685Z,102152.98
2018-11-27T11:47:22.626Z,102153.48
2018-11-27T11:49:54.430Z,102156.63
2018-11-27T11:52:26.385Z,102159.13
2018-11-27T11:54:58.483Z,102159.08
2018-11-27T11:57:29.868Z,102160.61
2018-11-27T12:00:02.140Z,102154.05
2018-11-27T12:02:34.436Z,102151.39
2018-11-27T12:05:07.318Z,102163.46
2018-11-27T12:07:38.736Z,102164.23
2018-11-27T12:10:19.145Z,102164.33
2018-11-27T12:12:51.874Z,102161.19
2018-11-27T12:15:24.415Z,102163.61
2018-11-27T12:17:56.901Z,102162.52
2018-11-27T12:20:29.225Z,102161.50
2018-11-27T12:23:01.512Z,102155.64
2018-11-27T12:25:33.158Z,102148.48
2018-11-27T12:28:06.197Z,102148.86
2018-11-27T12:30:39.088Z,102151.77
2018-11-27T12:33:10.494Z,102148.86
2018-11-27T12:35:42.028Z,102156.56
2018-11-27T12:38:14.616Z,102153.78
2018-11-27T12:40:47.104Z,102147.58
2018-11-27T12:43:18.557Z,102144.12
2018-11-27T12:45:50.836Z,102142.80
2018-11-27T12:48:22.941Z,102142.98
2018-11-27T12:50:55.810Z,102137.72
2018-11-27T12:53:27.681Z,102143.67
2018-11-27T12:56:00.240Z,102154.67
2018-11-27T12:58:31.996Z,102157.17
2018-11-27T13:01:09.365Z,102153.88
2018-11-27T13:03:36.704Z,102163.03
2018-11-27T13:06:09.458Z,102164.83
2018-11-27T13:08:40.932Z,102162.68
2018-11-27T13:11:12.392Z,102148.59
2018-11-27T13:13:43.793Z,102168.38
2018-11-27T13:16:15.939Z,102164.07
2018-11-27T13:18:47.740Z,102160.53
2018-11-27T13:21:20.326Z,102157.33
2018-11-27T13:23:52.217Z,102161.29
2018-11-27T13:26:25.223Z,102167.56
2018-11-27T13:28:56.610Z,102160.05
2018-11-27T13:31:29.938Z,102161.92
2018-11-27T13:34:13.153Z,102164.16
2018-11-27T13:36:44.625Z,102161.19
2018-11-27T13:39:35.012Z,102155.96
2018-11-27T13:42:08.772Z,102161.78
2018-11-27T13:44:41.832Z,102161.23
2018-11-27T13:47:13.194Z,102160.30
2018-11-27T13:49:45.055Z,102159.63
2018-11-27T13:52:17.289Z,102160.22
2018-11-27T13:55:20.795Z,102159.73
2018-11-27T13:57:54.329Z,102157.96
2018-11-27T14:00:26.157Z,102163.30
2018-11-27T14:02:58.016Z,102163.20
2018-11-27T14:05:29.849Z,102170.11
2018-11-27T14:08:01.826Z,102169.86
2018-11-27T14:10:33.537Z,102161.84
2018-11-27T14:13:05.809Z,102166.48
2018-11-27T14:15:38.481Z,102168.38
2018-11-27T14:18:11.007Z,102172.63
2018-11-27T14:20:43.794Z,102137.17
2018-11-27T14:23:16.562Z,102175.73
2018-11-27T14:25:48.643Z,102174.64
2018-11-27T14:28:20.384Z,102171.30
2018-11-27T14:30:52.491Z,102176.46
2018-11-27T14:33:24.114Z,102181.35
2018-11-27T14:35:56.590Z,102174.72
2018-11-27T14:38:28.880Z,102180.45
2018-11-27T14:41:00.309Z,102179.68
2018-11-27T14:43:31.691Z,102179.27
2018-11-27T14:46:11.608Z,102185.41
2018-11-27T14:49:14.084Z,102187.37
2018-11-27T14:52:02.128Z,102191.96
2018-11-27T14:54:55.552Z,102185.80
2018-11-27T14:57:46.007Z,102191.11
2018-11-27T15:00:50.433Z,102188.81
2018-11-27T15:03:31.951Z,102204.86
2018-11-27T15:06:30.541Z,102195.29
2018-11-27T15:09:22.361Z,102204.70
2018-11-27T15:12:13.917Z,102201.90
2018-11-27T15:14:46.146Z,102210.31
2018-11-27T15:17:19.358Z,102218.45
2018-11-27T15:19:51.191Z,102218.41
2018-11-27T15:22:23.565Z,102214.41
2018-11-27T15:24:56.890Z,102215.59
2018-11-27T15:27:28.501Z,102215.23
2018-11-27T15:30:00.410Z,102218.67
2018-11-27T15:32:32.253Z,102223.45
2018-11-27T15:35:03.778Z,102233.44
2018-11-27T15:37:36.325Z,102228.19
2018-11-27T15:40:16.055Z,102228.19
2018-11-27T15:42:53.183Z,102234.14
2018-11-27T15:45:29.137Z,102234.50
2018-11-27T15:48:00.807Z,102234.64
2018-11-27T15:50:33.673Z,102232.05
2018-11-27T15:53:07.200Z,102235.33
2018-11-27T15:55:40.455Z,102238.51
2018-11-27T15:58:15.957Z,102241.66
2018-11-27T16:00:47.548Z,102228.43
2018-11-27T16:03:19.027Z,102238.22
2018-11-27T16:05:51.217Z,102240.63
2018-11-27T16:08:23.732Z,102230.28
2018-11-27T16:10:55.554Z,102236.66
2018-11-27T16:13:29.787Z,102229.83
2018-11-27T16:16:01.318Z,102232.50
2018-11-27T16:18:33.526Z,102227.94
2018-11-27T16:21:05.062Z,102230.84
2018-11-27T16:23:38.894Z,102224.59
2018-11-27T16:26:11.433Z,102227.73
2018-11-27T16:28:43.285Z,102224.85
2018-11-27T16:31:16.339Z,102229.64
2018-11-27T16:33:48.134Z,102234.72
2018-11-27T16:36:19.849Z,102234.98
2018-11-27T16:38:51.996Z,102240.73
2018-11-27T16:41:30.738Z,102249.36
2018-11-27T16:44:06.423Z,102245.04
2018-11-27T16:46:41.229Z,102249.11
2018-11-27T16:49:15.405Z,102245.87
2018-11-27T16:51:51.040Z,102245.03
2018-11-27T16:54:23.909Z,102248.51
2018-11-27T16:56:56.395Z,102260.04
2018-11-27T16:59:27.973Z,102262.73
2018-11-27T17:02:09.920Z,102255.03
2018-11-27T17:04:43.895Z,102255.74
2018-11-27T17:07:17.857Z,102246.72
2018-11-27T17:09:49.675Z,102240.01
2018-11-27T17:12:21.195Z,102243.03
2018-11-27T17:14:54.333Z,102246.03
2018-11-27T17:17:25.879Z,102249.76
2018-11-27T17:19:57.318Z,102255.16
2018-11-27T17:22:28.884Z,102269.81
